Time;durP1;ratioP1;P1;durP2;ratioP2;P2;SDS_P1;SDS_P2;PMS_P1;PMS_P2;Temp;Humidity;BMP_temperature;BMP_pressure;BME280_temperature;BME280_humidity;BME280_pressure;Samples;Min_cycle;Max_cycle;Signal;HPM_P1;HPM_P2
2021/11/11 00:00:30;;;;;;;5.40;2.00;;;;;;;1.94;100.00;100897.19;4973439;28;20049;-65
2021/11/11 00:03:15;;;;;;;5.13;1.98;;;;;;;1.77;100.00;100885.31;4976466;28;20074;-64
2021/11/11 00:06:00;;;;;;;5.10;2.00;;;;;;;1.80;100.00;100872.34;4972586;28;20104;-63
2021/11/11 00:08:45;;;;;;;5.22;2.22;;;;;;;1.91;100.00;100870.06;4965126;28;20048;-65
2021/11/11 00:11:29;;;;;;;5.95;2.17;;;;;;;2.03;100.00;100858.28;4981800;28;20049;-63
2021/11/11 00:14:14;;;;;;;7.25;2.33;;;;;;;2.11;100.00;100841.09;4971050;28;20052;-63
2021/11/11 00:16:58;;;;;;;6.13;2.17;;;;;;;2.02;100.00;100843.38;4963196;28;20052;-63
2021/11/11 00:19:42;;;;;;;4.82;2.05;;;;;;;1.84;100.00;100844.56;4978547;28;20218;-62
2021/11/11 00:22:27;;;;;;;9.80;2.35;;;;;;;1.84;100.00;100837.59;4965466;28;20073;-64
2021/11/11 00:25:13;;;;;;;6.25;2.65;;;;;;;1.83;100.00;100835.84;4961879;28;20853;-64
2021/11/11 00:27:58;;;;;;;5.18;2.38;;;;;;;1.93;100.00;100852.72;4976614;28;20116;-65
2021/11/11 00:30:43;;;;;;;8.90;2.45;;;;;;;1.73;100.00;100832.84;4959619;28;20454;-64
2021/11/11 00:33:27;;;;;;;5.28;2.42;;;;;;;1.80;100.00;100827.00;4975057;28;20577;-64
2021/11/11 00:36:12;;;;;;;7.85;2.72;;;;;;;1.78;100.00;100834.78;4951831;28;20053;-64
2021/11/11 00:38:58;;;;;;;7.35;2.60;;;;;;;1.80;100.00;100827.88;4945442;28;20418;-63
2021/11/11 00:41:43;;;;;;;6.72;2.50;;;;;;;2.03;100.00;100808.56;4966002;28;20068;-63
2021/11/11 00:44:29;;;;;;;5.10;2.25;;;;;;;2.11;100.00;100801.84;4972753;28;20084;-66
2021/11/11 00:47:15;;;;;;;7.80;2.38;;;;;;;2.12;100.00;100784.41;4960080;28;20041;-64
2021/11/11 00:50:01;;;;;;;7.55;2.40;;;;;;;2.30;100.00;100779.72;4964015;28;20056;-65
2021/11/11 00:52:48;;;;;;;4.85;2.40;;;;;;;2.28;100.00;100776.16;4960629;28;20462;-64
2021/11/11 00:55:34;;;;;;;7.78;2.58;;;;;;;2.08;100.00;100766.84;4961748;28;20045;-64
2021/11/11 00:58:27;;;;;;;4.90;2.37;;;;;;;2.21;100.00;100782.94;4963240;28;20049;-64
2021/11/11 01:01:12;;;;;;;5.68;1.98;;;;;;;2.35;100.00;100770.25;4958109;28;20045;-65
2021/11/11 01:03:59;;;;;;;4.03;2.38;;;;;;;2.29;100.00;100788.41;4964551;28;20105;-64
2021/11/11 01:06:45;;;;;;;3.85;2.20;;;;;;;2.33;100.00;100771.97;4950336;28;20090;-64
2021/11/11 01:09:30;;;;;;;6.95;2.53;;;;;;;2.30;100.00;100769.25;4947898;28;20106;-63
2021/11/11 01:12:15;;;;;;;7.88;2.50;;;;;;;2.41;100.00;100783.53;4946554;28;20117;-64
2021/11/11 01:15:00;;;;;;;6.95;2.55;;;;;;;2.47;100.00;100784.59;4953860;28;20054;-65
2021/11/11 01:17:46;;;;;;;6.38;2.58;;;;;;;2.38;100.00;100775.59;4935216;29;20252;-64
2021/11/11 01:20:31;;;;;;;6.13;2.28;;;;;;;2.25;100.00;100784.81;4952971;28;20616;-66
2021/11/11 01:23:16;;;;;;;5.38;2.50;;;;;;;2.41;100.00;100757.38;4953107;28;20166;-64
2021/11/11 01:26:02;;;;;;;6.53;2.17;;;;;;;2.39;100.00;100761.66;4946829;28;20100;-64
2021/11/11 01:28:47;;;;;;;7.70;2.20;;;;;;;2.58;100.00;100756.09;4956603;28;20391;-63
2021/11/11 01:31:36;;;;;;;5.40;2.05;;;;;;;2.79;100.00;100757.56;4965542;28;20073;-65
2021/11/11 01:34:26;;;;;;;8.38;2.30;;;;;;;2.65;100.00;100748.44;4962628;28;20053;-66
2021/11/11 01:37:11;;;;;;;5.03;1.88;;;;;;;2.67;100.00;100751.09;4949267;28;20069;-63
2021/11/11 01:40:03;;;;;;;8.10;1.98;;;;;;;2.66;100.00;100741.47;4962489;28;20073;-65
2021/11/11 01:42:51;;;;;;;6.82;1.77;;;;;;;2.74;100.00;100729.47;4928459;28;20101;-65
2021/11/11 01:45:41;;;;;;;3.95;2.00;;;;;;;2.62;100.00;100752.72;4939383;28;20533;-64
2021/11/11 01:48:35;;;;;;;4.35;2.10;;;;;;;2.60;100.00;100738.69;4940976;28;20089;-66
2021/11/11 01:51:29;;;;;;;5.15;2.25;;;;;;;2.53;100.00;100728.91;4947369;28;20482;-66
2021/11/11 01:54:19;;;;;;;5.40;2.08;;;;;;;2.63;100.00;100729.19;4949848;28;20058;-64
2021/11/11 01:57:07;;;;;;;5.53;2.00;;;;;;;2.73;100.00;100723.34;4965358;28;20061;-66
2021/11/11 01:59:52;;;;;;;6.45;1.88;;;;;;;2.98;100.00;100722.25;4944483;28;20426;-64
2021/11/11 02:02:38;;;;;;;4.30;1.80;;;;;;;3.01;100.00;100727.56;4948879;28;21269;-65
2021/11/11 02:05:22;;;;;;;4.15;2.08;;;;;;;2.81;100.00;100713.94;4948425;28;20129;-66
2021/11/11 02:08:07;;;;;;;5.88;1.90;;;;;;;2.77;100.00;100708.63;4936352;28;20162;-65
2021/11/11 02:10:53;;;;;;;8.07;2.08;;;;;;;3.01;100.00;100715.34;4953657;28;20415;-69
2021/11/11 02:13:38;;;;;;;2.53;1.73;;;;;;;3.25;100.00;100705.47;4956518;28;20108;-67
2021/11/11 02:16:28;;;;;;;6.20;2.55;;;;;;;3.18;100.00;100695.69;4943368;28;20081;-67
2021/11/11 02:19:13;;;;;;;3.85;1.63;;;;;;;3.27;100.00;100701.16;4938363;28;20456;-65
2021/11/11 02:22:04;;;;;;;3.53;1.55;;;;;;;3.18;100.00;100702.66;4947460;28;20189;-66
2021/11/11 02:24:55;;;;;;;3.63;1.70;;;;;;;3.02;100.00;100703.13;4943759;28;20730;-66
2021/11/11 02:27:41;;;;;;;5.55;1.67;;;;;;;3.15;100.00;100684.25;4967059;28;20077;-66
2021/11/11 02:30:28;;;;;;;3.58;1.90;;;;;;;3.30;100.00;100669.78;4964000;28;20133;-65
2021/11/11 02:33:20;;;;;;;3.78;1.52;;;;;;;3.29;100.00;100665.38;4937628;28;20577;-65
2021/11/11 02:36:05;;;;;;;2.95;1.75;;;;;;;3.38;100.00;100670.84;4938224;28;20049;-66
2021/11/11 02:38:52;;;;;;;4.78;1.50;;;;;;;3.20;100.00;100656.41;4967623;28;20142;-66
2021/11/11 02:41:37;;;;;;;5.15;1.95;;;;;;;3.36;100.00;100650.69;4951122;28;20511;-65
2021/11/11 02:44:23;;;;;;;3.85;1.55;;;;;;;3.39;100.00;100635.91;4949454;28;20146;-66
2021/11/11 02:47:08;;;;;;;2.47;1.73;;;;;;;3.41;100.00;100641.19;4945832;28;20058;-66
2021/11/11 02:49:59;;;;;;;7.40;1.42;;;;;;;3.23;100.00;100636.41;4953402;28;20205;-66
2021/11/11 02:52:47;;;;;;;3.08;1.45;;;;;;;3.29;100.00;100638.28;4961802;28;20101;-65
2021/11/11 02:55:33;;;;;;;3.53;1.60;;;;;;;3.30;100.00;100630.47;4956655;28;20097;-64
2021/11/11 02:58:19;;;;;;;4.68;1.58;;;;;;;3.31;100.00;100626.09;4953931;28;20097;-65
2021/11/11 03:01:05;;;;;;;3.40;1.42;;;;;;;3.41;100.00;100626.31;4959590;28;20426;-64
2021/11/11 03:03:51;;;;;;;7.72;2.08;;;;;;;3.36;100.00;100616.63;4963696;28;20430;-65
2021/11/11 03:06:39;;;;;;;2.70;1.58;;;;;;;3.26;100.00;100618.16;4947502;28;20053;-62
2021/11/11 03:09:23;;;;;;;4.18;1.52;;;;;;;3.23;100.00;100617.19;4959230;28;20079;-64
2021/11/11 03:12:09;;;;;;;2.55;1.40;;;;;;;3.36;100.00;100622.72;4962715;28;20065;-63
2021/11/11 03:14:55;;;;;;;4.80;1.58;;;;;;;3.43;100.00;100619.41;4947769;28;20088;-64
2021/11/11 03:17:41;;;;;;;;;;;;;;;3.38;100.00;100614.91;4948907;28;20521;-63
2021/11/11 03:20:27;;;;;;;4.45;1.50;;;;;;;3.42;100.00;100609.78;4956670;28;19985;-64
2021/11/11 03:23:13;;;;;;;2.90;1.55;;;;;;;3.44;100.00;100599.31;4970854;28;20530;-65
2021/11/11 03:25:57;;;;;;;3.08;1.42;;;;;;;3.50;100.00;100587.22;4966544;28;20086;-66
2021/11/11 03:28:48;;;;;;;4.55;1.73;;;;;;;3.45;100.00;100594.09;4947454;28;20952;-63
2021/11/11 03:31:41;;;;;;;3.67;1.52;;;;;;;3.51;100.00;100591.59;4945551;28;20498;-64
2021/11/11 03:34:26;;;;;;;4.40;1.77;;;;;;;3.51;100.00;100582.84;4950992;28;20049;-66
2021/11/11 03:37:14;;;;;;;2.60;1.25;;;;;;;3.39;100.00;100586.09;4946889;28;20086;-65
2021/11/11 03:39:59;;;;;;;4.68;1.40;;;;;;;3.47;100.00;100581.00;4956066;28;20133;-66
2021/11/11 03:42:46;;;;;;;2.70;1.48;;;;;;;3.58;100.00;100569.91;4946040;28;20058;-64
2021/11/11 03:45:33;;;;;;;4.07;1.50;;;;;;;3.45;100.00;100554.75;4953232;28;20522;-64
2021/11/11 03:48:18;;;;;;;3.38;1.70;;;;;;;3.61;100.00;100556.84;4946595;28;20716;-64
2021/11/11 03:51:03;;;;;;;6.50;1.88;;;;;;;3.68;100.00;100552.63;4948128;28;20537;-67
2021/11/11 03:53:51;;;;;;;3.35;1.92;;;;;;;3.68;100.00;100539.53;4932407;29;20098;-64
2021/11/11 03:56:39;;;;;;;2.50;1.50;;;;;;;3.59;100.00;100541.94;4956995;28;20058;-64
2021/11/11 03:59:26;;;;;;;4.07;1.63;;;;;;;3.72;100.00;100547.47;4962379;28;20054;-65
2021/11/11 04:02:13;;;;;;;3.42;1.60;;;;;;;3.63;100.00;100557.78;4935118;29;20572;-66
2021/11/11 04:04:59;;;;;;;4.38;1.60;;;;;;;3.64;100.00;100535.06;4941137;28;20590;-66
2021/11/11 04:07:44;;;;;;;2.88;1.40;;;;;;;3.64;100.00;100535.94;4957852;28;20050;-65
2021/11/11 04:10:29;;;;;;;5.05;1.50;;;;;;;3.57;100.00;100530.56;4939564;28;20082;-67
2021/11/11 04:13:22;;;;;;;5.13;1.75;;;;;;;3.66;100.00;100515.88;4935861;29;20058;-68
2021/11/11 04:16:08;;;;;;;2.72;1.40;;;;;;;3.64;100.00;100522.81;4963659;28;20801;-65
2021/11/11 04:18:56;;;;;;;4.65;1.70;;;;;;;3.48;100.00;100517.28;4941773;28;20049;-66
2021/11/11 04:21:41;;;;;;;3.42;1.40;;;;;;;3.51;100.00;100514.69;4954696;28;20073;-73
2021/11/11 04:24:27;;;;;;;3.63;1.65;;;;;;;3.53;100.00;100494.66;4957210;28;20067;-65
2021/11/11 04:27:21;;;;;;;;;;;;;;;3.54;100.00;100507.78;4960088;28;20190;-65
2021/11/11 04:30:30;;;;;;;4.85;1.70;;;;;;;3.57;100.00;100499.94;4950148;28;20259;-64
2021/11/11 04:33:15;;;;;;;6.13;1.70;;;;;;;3.64;100.00;100514.09;4971367;28;20069;-63
2021/11/11 04:36:07;;;;;;;2.63;1.38;;;;;;;3.60;100.00;100512.28;4977884;28;20054;-67
2021/11/11 04:45:22;;;;;;;3.72;1.52;;;;;;;3.82;100.00;100517.03;4954534;28;20113;-65
2021/11/11 05:05:56;;;;;;;2.35;1.48;;;;;;;3.68;100.00;100464.34;4966678;28;20093;-67
2021/11/11 05:08:41;;;;;;;2.95;1.40;;;;;;;3.76;100.00;100462.75;4948062;28;20065;-66
2021/11/11 05:11:26;;;;;;;2.35;1.40;;;;;;;3.70;100.00;100469.63;4955680;28;20174;-67
2021/11/11 05:14:11;;;;;;;4.15;1.70;;;;;;;3.65;100.00;100458.16;4955210;28;20066;-67
2021/11/11 05:16:56;;;;;;;4.75;2.13;;;;;;;3.70;100.00;100433.78;4935246;29;20158;-65
2021/11/11 05:19:42;;;;;;;3.47;1.60;;;;;;;3.76;100.00;100436.50;4950207;28;20070;-66
2021/11/11 05:22:27;;;;;;;3.45;1.70;;;;;;;3.69;100.00;100439.00;4953470;28;20054;-67
2021/11/11 05:25:16;;;;;;;3.28;1.58;;;;;;;3.70;100.00;100448.63;4920798;29;20050;-66
2021/11/11 05:28:01;;;;;;;3.85;1.85;;;;;;;3.77;100.00;100456.63;4958449;28;20057;-67
2021/11/11 05:30:47;;;;;;;2.85;1.45;;;;;;;3.74;100.00;100469.72;4940991;29;20535;-66
2021/11/11 05:33:33;;;;;;;5.82;2.10;;;;;;;3.90;100.00;100450.75;4932757;29;20142;-67
2021/11/11 05:36:19;;;;;;;4.95;1.90;;;;;;;3.90;100.00;100449.88;4951856;28;20053;-68
2021/11/11 05:39:04;;;;;;;3.80;1.60;;;;;;;3.94;100.00;100433.31;4954567;28;20117;-65
2021/11/11 05:41:50;;;;;;;3.55;1.55;;;;;;;3.95;100.00;100438.59;4936491;28;20527;-63
2021/11/11 05:44:35;;;;;;;4.07;1.50;;;;;;;3.95;100.00;100454.34;4950763;28;20114;-65
2021/11/11 05:47:19;;;;;;;;;;;;;;;4.02;100.00;100435.22;4968372;28;20053;-65
2021/11/11 05:50:06;;;;;;;3.53;1.70;;;;;;;3.99;100.00;100442.16;4946514;28;19925;-65
2021/11/11 05:52:52;;;;;;;5.07;2.38;;;;;;;3.98;100.00;100443.91;4958628;28;20106;-66
2021/11/11 05:55:39;;;;;;;6.32;2.83;;;;;;;4.01;100.00;100448.31;4930108;29;20099;-72
2021/11/11 05:58:27;;;;;;;5.65;2.40;;;;;;;3.90;100.00;100442.91;4936227;28;20136;-66
2021/11/11 06:01:12;;;;;;;4.85;2.28;;;;;;;3.83;100.00;100438.41;4948897;28;20062;-68
2021/11/11 06:04:05;;;;;;;6.25;2.38;;;;;;;3.92;100.00;100420.19;4958567;28;20117;-65
2021/11/11 06:06:56;;;;;;;4.75;2.05;;;;;;;4.03;100.00;100438.72;4949512;28;20542;-68
2021/11/11 06:09:40;;;;;;;4.93;2.55;;;;;;;4.15;100.00;100444.16;4935292;28;20522;-68
2021/11/11 06:12:26;;;;;;;4.45;2.20;;;;;;;4.23;100.00;100450.41;4950923;28;20065;-70
2021/11/11 06:15:11;;;;;;;8.15;2.30;;;;;;;4.34;100.00;100452.38;4943309;29;20054;-68
2021/11/11 06:17:58;;;;;;;4.35;2.05;;;;;;;4.25;100.00;100440.84;4947833;29;20134;-70
2021/11/11 06:20:45;;;;;;;6.57;2.10;;;;;;;4.29;100.00;100435.69;4935944;29;20045;-68
2021/11/11 06:23:34;;;;;;;5.40;2.40;;;;;;;4.13;100.00;100425.81;4944943;29;20094;-71
2021/11/11 06:26:20;;;;;;;4.03;2.00;;;;;;;4.28;100.00;100443.53;4929393;29;20049;-70
2021/11/11 06:29:19;;;;;;;6.95;1.80;;;;;;;4.20;100.00;100437.28;4946445;28;20105;-68
2021/11/11 06:32:06;;;;;;;6.60;2.20;;;;;;;4.27;100.00;100425.97;4946592;29;20419;-69
2021/11/11 06:34:53;;;;;;;4.28;2.22;;;;;;;4.23;100.00;100424.16;4941551;28;20057;-67
2021/11/11 06:37:37;;;;;;;4.15;2.45;;;;;;;4.38;100.00;100442.78;4944411;29;20136;-68
2021/11/11 06:40:22;;;;;;;7.15;2.45;;;;;;;4.55;100.00;100436.06;4931122;29;20485;-68
2021/11/11 06:43:06;;;;;;;5.80;2.55;;;;;;;4.52;100.00;100444.75;4947308;29;20542;-68
2021/11/11 06:45:50;;;;;;;8.05;2.45;;;;;;;4.60;100.00;100437.00;4946375;29;20455;-69
2021/11/11 06:48:36;;;;;;;5.55;2.47;;;;;;;4.63;100.00;100422.16;4942901;28;20526;-69
2021/11/11 06:51:21;;;;;;;4.82;2.67;;;;;;;4.57;100.00;100437.84;4948995;29;20061;-68
2021/11/11 06:54:08;;;;;;;5.25;2.17;;;;;;;4.56;100.00;100424.69;4949092;28;20062;-70
2021/11/11 06:56:52;;;;;;;4.70;2.55;;;;;;;4.67;100.00;100426.59;4944604;29;20619;-70
2021/11/11 06:59:37;;;;;;;5.40;2.40;;;;;;;4.76;100.00;100417.97;4944571;29;20395;-71
2021/11/11 07:02:26;;;;;;;5.13;2.22;;;;;;;4.69;100.00;100421.38;4951933;28;20302;-73
2021/11/11 07:05:11;;;;;;;5.13;2.55;;;;;;;4.46;100.00;100436.81;4934373;28;20051;-70
2021/11/11 07:07:58;;;;;;;4.53;2.40;;;;;;;4.39;100.00;100434.94;4943579;28;20527;-69
2021/11/11 07:10:48;;;;;;;5.32;2.85;;;;;;;4.45;100.00;100436.78;4932756;29;20224;-70
2021/11/11 07:13:34;;;;;;;7.30;4.13;;;;;;;4.46;100.00;100425.41;4940249;29;20063;-69
2021/11/11 07:16:19;;;;;;;5.50;2.75;;;;;;;4.38;100.00;100421.78;4963766;28;20053;-71
2021/11/11 07:19:03;;;;;;;5.07;2.80;;;;;;;4.34;100.00;100409.47;4925381;28;20074;-71
2021/11/11 07:21:50;;;;;;;4.68;2.63;;;;;;;4.34;100.00;100414.72;4944025;28;20176;-70
2021/11/11 07:24:34;;;;;;;6.45;2.70;;;;;;;4.33;100.00;100411.25;4929291;29;20098;-69
2021/11/11 07:27:19;;;;;;;;;;;;;;;4.24;100.00;100423.34;4955042;28;20058;-68
2021/11/11 07:30:11;;;;;;;5.88;2.53;;;;;;;4.02;100.00;100419.47;4949030;28;20445;-69
2021/11/11 07:32:56;;;;;;;6.05;2.58;;;;;;;3.92;100.00;100414.06;4960723;28;20138;-69
2021/11/11 07:35:44;;;;;;;4.50;2.63;;;;;;;4.14;100.00;100414.44;4960833;28;20058;-69
2021/11/11 07:38:28;;;;;;;8.98;3.75;;;;;;;3.95;100.00;100393.09;4951266;28;20814;-68
2021/11/11 07:41:13;;;;;;;6.72;3.10;;;;;;;4.08;100.00;100408.22;4968552;28;20094;-70
2021/11/11 07:43:57;;;;;;;7.60;3.53;;;;;;;4.17;100.00;100410.97;4974967;28;20058;-68
2021/11/11 07:46:42;;;;;;;11.20;4.35;;;;;;;4.16;100.00;100406.59;4956594;28;20054;-69
2021/11/11 07:49:27;;;;;;;8.35;3.75;;;;;;;4.10;100.00;100399.50;4977064;28;20056;-70
2021/11/11 07:52:12;;;;;;;9.82;4.43;;;;;;;4.09;100.00;100397.75;4963106;28;20053;-70
2021/11/11 07:54:58;;;;;;;8.07;3.67;;;;;;;3.86;100.00;100406.09;4971990;28;20061;-72
2021/11/11 07:57:44;;;;;;;7.82;3.85;;;;;;;3.96;100.00;100408.00;4974340;28;20080;-68
2021/11/11 08:00:29;;;;;;;8.88;4.13;;;;;;;3.93;100.00;100402.72;4972282;28;20077;-72
2021/11/11 08:03:14;;;;;;;7.78;3.70;;;;;;;4.14;100.00;100408.28;4961453;28;20076;-71
2021/11/11 08:05:59;;;;;;;11.07;4.68;;;;;;;4.27;100.00;100408.50;4978783;28;20750;-71
2021/11/11 08:08:43;;;;;;;10.65;3.95;;;;;;;4.33;100.00;100399.84;4978591;28;20064;-69
2021/11/11 08:11:28;;;;;;;9.88;4.07;;;;;;;4.48;100.00;100392.19;4963140;28;20548;-72
2021/11/11 08:14:13;;;;;;;7.97;4.13;;;;;;;4.48;100.00;100385.19;4964077;28;20061;-71
2021/11/11 08:16:57;;;;;;;8.35;4.07;;;;;;;4.43;100.00;100380.72;4963863;28;20060;-71
2021/11/11 08:19:43;;;;;;;11.95;4.70;;;;;;;4.47;100.00;100382.53;4953750;28;20069;-72
2021/11/11 08:22:28;;;;;;;8.40;4.05;;;;;;;4.59;100.00;100375.72;4968003;28;20201;-70
2021/11/11 08:25:15;;;;;;;8.85;4.57;;;;;;;4.63;100.00;100374.03;4968280;28;20056;-71
2021/11/11 08:28:01;;;;;;;7.68;4.13;;;;;;;4.77;100.00;100378.59;4954289;28;20178;-72
2021/11/11 08:30:47;;;;;;;8.02;3.97;;;;;;;4.73;100.00;100370.63;4950405;28;20105;-73
2021/11/11 08:33:32;;;;;;;7.10;4.13;;;;;;;4.82;100.00;100369.00;4950867;28;20577;-67
2021/11/11 08:36:17;;;;;;;7.28;4.10;;;;;;;4.76;100.00;100366.28;4957745;28;20054;-68
2021/11/11 08:39:03;;;;;;;;;;;;;;;4.86;100.00;100362.94;4977306;28;20079;-68
2021/11/11 08:41:50;;;;;;;8.05;4.05;;;;;;;4.74;100.00;100367.16;4961342;28;20366;-70
2021/11/11 08:44:37;;;;;;;7.88;4.32;;;;;;;4.61;100.00;100350.38;4961393;28;20072;-70
2021/11/11 08:47:23;;;;;;;11.38;5.15;;;;;;;4.64;100.00;100352.16;4974373;28;20065;-72
2021/11/11 08:50:08;;;;;;;;;;;;;;;4.53;100.00;100352.00;4950260;28;20073;-67
2021/11/11 08:52:55;;;;;;;6.85;4.25;;;;;;;4.67;100.00;100352.19;4959903;28;19929;-70
2021/11/11 08:55:43;;;;;;;8.45;4.20;;;;;;;4.67;100.00;100352.19;4960829;28;20049;-70
2021/11/11 08:58:29;;;;;;;9.40;4.15;;;;;;;4.84;100.00;100363.78;4974700;28;20054;-66
2021/11/11 09:01:14;;;;;;;8.35;4.25;;;;;;;4.90;100.00;100364.72;4948123;28;20049;-69
2021/11/11 09:03:59;;;;;;;;;;;;;;;4.91;100.00;100363.88;4941975;28;20086;-67
2021/11/11 09:06:46;;;;;;;9.95;4.18;;;;;;;4.83;100.00;100359.41;4949252;28;20390;-70
2021/11/11 09:09:31;;;;;;;7.25;4.65;;;;;;;4.75;100.00;100359.28;4939342;28;20431;-72
2021/11/11 09:12:16;;;;;;;;;;;;;;;4.71;100.00;100351.38;4959184;28;20833;-66
2021/11/11 09:15:07;;;;;;;7.65;4.28;;;;;;;4.73;100.00;100347.00;4974132;28;20345;-73
2021/11/11 09:17:57;;;;;;;5.68;3.60;;;;;;;4.63;100.00;100337.25;4963859;28;20050;-69
2021/11/11 09:20:42;;;;;;;10.00;4.53;;;;;;;4.60;100.00;100338.06;4953259;28;20164;-68
2021/11/11 09:23:28;;;;;;;9.48;5.07;;;;;;;4.56;100.00;100348.53;4953460;28;20106;-68
2021/11/11 09:26:13;;;;;;;12.52;5.25;;;;;;;4.42;100.00;100344.84;4956234;28;20082;-69
2021/11/11 09:28:58;;;;;;;11.73;5.10;;;;;;;4.40;100.00;100349.19;4967854;28;20093;-73
2021/11/11 09:31:46;;;;;;;10.90;5.57;;;;;;;4.39;100.00;100340.44;4968809;28;20056;-68
2021/11/11 09:34:30;;;;;;;11.75;5.93;;;;;;;4.29;100.00;100341.19;4962345;28;20185;-67
2021/11/11 09:37:15;;;;;;;;;;;;;;;4.19;100.00;100341.91;4977526;28;20049;-67
2021/11/11 09:40:03;;;;;;;12.57;5.55;;;;;;;4.24;100.00;100348.09;4959920;28;19972;-67
2021/11/11 09:42:49;;;;;;;9.88;5.38;;;;;;;4.22;100.00;100346.31;4975921;28;20097;-68
2021/11/11 09:45:35;;;;;;;10.50;5.45;;;;;;;4.27;100.00;100327.13;4976976;28;20538;-68
2021/11/11 09:48:20;;;;;;;8.95;5.63;;;;;;;4.32;100.00;100335.94;4959285;28;20070;-68
2021/11/11 09:51:09;;;;;;;11.82;5.55;;;;;;;4.25;100.00;100342.00;4948328;28;20057;-71
2021/11/11 10:00:11;;;;;;;10.82;5.28;;;;;;;4.12;100.00;100332.16;4943483;29;20543;-67
2021/11/11 10:03:02;;;;;;;11.85;5.30;;;;;;;4.12;100.00;100331.31;4935849;28;20058;-67
2021/11/11 10:05:47;;;;;;;9.98;5.35;;;;;;;4.21;100.00;100328.81;4933031;29;20114;-70
2021/11/11 10:08:42;;;;;;;11.15;6.30;;;;;;;4.13;100.00;100322.56;4922412;28;20110;-69
2021/11/11 10:11:38;;;;;;;11.38;6.78;;;;;;;4.24;100.00;100316.59;4941770;28;20058;-70
2021/11/11 10:14:30;;;;;;;10.20;6.18;;;;;;;4.40;100.00;100308.06;4933060;28;20081;-66
2021/11/11 10:17:19;;;;;;;10.05;5.75;;;;;;;4.50;100.00;100301.19;4929859;29;20078;-68
2021/11/11 10:20:05;;;;;;;12.50;5.32;;;;;;;4.53;100.00;100310.00;4916925;29;20098;-72
2021/11/11 10:22:51;;;;;;;10.98;6.00;;;;;;;4.63;100.00;100314.50;4930459;29;20073;-66
2021/11/11 10:25:36;;;;;;;11.35;5.60;;;;;;;4.62;100.00;100310.09;4931667;29;20094;-69
2021/11/11 10:28:38;;;;;;;11.90;5.90;;;;;;;4.79;100.00;100320.81;4944214;28;20045;-68
2021/11/11 10:31:23;;;;;;;12.30;5.63;;;;;;;4.63;100.00;100316.25;4910788;29;21324;-67
2021/11/11 10:34:11;;;;;;;11.43;6.60;;;;;;;4.63;100.00;100311.84;4929205;29;20054;-70
2021/11/11 10:36:58;;;;;;;12.48;6.05;;;;;;;4.48;100.00;100316.06;4944984;28;20081;-71
2021/11/11 10:39:54;;;;;;;9.43;5.70;;;;;;;4.52;100.00;100312.59;4956261;28;20226;-70
2021/11/11 10:42:42;;;;;;;13.32;5.53;;;;;;;4.58;100.00;100315.28;4955789;28;20458;-69
2021/11/11 10:45:31;;;;;;;11.85;5.43;;;;;;;4.58;100.00;100317.91;4945881;28;20104;-70
2021/11/11 10:48:23;;;;;;;10.30;5.90;;;;;;;4.60;100.00;100322.31;4959546;28;20054;-71
2021/11/11 10:51:08;;;;;;;13.75;7.03;;;;;;;4.59;100.00;100315.31;4945011;28;20155;-69
2021/11/11 10:54:04;;;;;;;12.82;6.07;;;;;;;4.63;100.00;100314.50;4958558;28;20081;-71
2021/11/11 10:56:53;;;;;;;;;;;;;;;4.65;100.00;100304.91;4958472;28;20542;-70
2021/11/11 10:59:38;;;;;;;9.48;5.63;;;;;;;4.73;100.00;100286.59;4946398;28;20251;-70
2021/11/11 11:02:23;;;;;;;13.05;6.00;;;;;;;4.76;100.00;100299.75;4967623;28;20057;-70
2021/11/11 11:05:08;;;;;;;10.68;5.82;;;;;;;4.77;100.00;100309.41;4971895;28;20116;-71
2021/11/11 11:07:54;;;;;;;;;;;;;;;4.52;100.00;100310.84;4969039;28;20053;-71
2021/11/11 11:10:43;;;;;;;11.43;6.10;;;;;;;4.42;100.00;100315.97;4937832;28;20428;-77
2021/11/11 11:13:50;;;;;;;14.27;6.22;;;;;;;4.52;100.00;100310.84;4968363;28;20094;-70
2021/11/11 11:16:35;;;;;;;12.95;6.72;;;;;;;4.57;100.00;100309.19;4959592;28;20170;-76
2021/11/11 11:19:22;;;;;;;12.35;6.68;;;;;;;4.54;100.00;100301.25;4958456;28;20058;-68
2021/11/11 11:22:07;;;;;;;11.07;6.18;;;;;;;4.54;100.00;100327.50;4952201;28;20050;-69
2021/11/11 11:25:03;;;;;;;14.13;7.05;;;;;;;4.65;100.00;100315.41;4961892;28;20054;-80
2021/11/11 11:27:48;;;;;;;12.90;6.82;;;;;;;4.62;100.00;100312.72;4962875;28;20046;-71
2021/11/11 11:30:42;;;;;;;13.30;7.60;;;;;;;4.71;100.00;100317.22;4945873;28;20138;-72
2021/11/11 11:33:44;;;;;;;12.98;6.93;;;;;;;4.77;100.00;100306.78;4948940;28;20053;-69
2021/11/11 11:36:44;;;;;;;11.10;5.90;;;;;;;4.81;100.00;100300.69;4951524;28;20054;-70
2021/11/11 11:39:52;;;;;;;10.27;6.32;;;;;;;4.87;100.00;100303.41;4939373;28;20054;-70
2021/11/11 11:42:43;;;;;;;11.48;6.45;;;;;;;4.73;100.00;100304.97;4953467;28;20101;-71
2021/11/11 11:45:28;;;;;;;12.07;6.47;;;;;;;4.82;100.00;100303.34;4951564;28;20565;-67
2021/11/11 11:48:19;;;;;;;15.15;6.57;;;;;;;4.87;100.00;100296.38;4936037;28;20130;-72
2021/11/11 11:51:07;;;;;;;13.02;6.60;;;;;;;4.85;100.00;100295.50;4951075;28;20479;-71
2021/11/11 11:54:19;;;;;;;12.32;6.55;;;;;;;4.77;100.00;100301.53;4958376;28;20122;-70
2021/11/11 11:57:10;;;;;;;12.93;6.38;;;;;;;4.80;100.00;100322.56;4950903;28;20073;-66
2021/11/11 12:00:01;;;;;;;12.35;6.57;;;;;;;4.84;100.00;100327.00;4947364;28;20050;-71
2021/11/11 12:09:00;;;;;;;9.88;6.00;;;;;;;4.77;100.00;100293.63;4954299;28;20800;-70
2021/11/11 12:14:56;;;;;;;11.13;6.47;;;;;;;4.59;100.00;100298.69;4954578;28;20415;-72
2021/11/11 12:40:28;;;;;;;10.13;6.43;;;;;;;4.59;100.00;100306.56;4914241;29;20083;-71
2021/11/11 12:43:20;;;;;;;12.20;6.85;;;;;;;4.58;100.00;100299.53;4905312;29;20155;-69
2021/11/11 12:46:06;;;;;;;15.77;8.02;;;;;;;4.60;100.00;100297.81;4916939;29;20055;-68
2021/11/11 12:48:50;;;;;;;13.40;6.65;;;;;;;4.52;100.00;100305.59;4919595;29;20596;-67
2021/11/11 12:51:38;;;;;;;18.20;8.18;;;;;;;4.46;100.00;100307.25;4920552;29;20103;-71
2021/11/11 12:54:24;;;;;;;13.85;7.90;;;;;;;4.56;100.00;100309.16;4906757;29;20051;-67
2021/11/11 12:57:10;;;;;;;11.45;6.85;;;;;;;4.67;100.00;100308.41;4927745;29;20428;-70
2021/11/11 12:59:54;;;;;;;16.95;7.07;;;;;;;4.58;100.00;100318.81;4950123;28;20167;-71
2021/11/11 13:02:51;;;;;;;13.77;6.82;;;;;;;4.67;100.00;100321.53;4946959;29;20086;-69
2021/11/11 13:05:52;;;;;;;19.05;8.23;;;;;;;4.58;100.00;100303.06;4958774;28;20622;-70
2021/11/11 13:08:44;;;;;;;14.80;7.88;;;;;;;4.58;100.00;100302.16;4957414;28;20053;-69
2021/11/11 13:11:30;;;;;;;14.48;7.15;;;;;;;4.70;100.00;100313.69;4914894;29;20115;-71
2021/11/11 13:14:20;;;;;;;13.38;7.15;;;;;;;4.62;100.00;100327.59;4930417;29;20195;-68
2021/11/11 13:17:15;;;;;;;16.98;8.40;;;;;;;4.68;100.00;100330.31;4944552;29;20062;-66
2021/11/11 13:20:15;;;;;;;14.13;7.32;;;;;;;4.61;100.00;100320.59;4947620;29;20134;-72
2021/11/11 13:23:09;;;;;;;16.67;7.82;;;;;;;4.50;100.00;100309.97;4946681;29;20054;-68
2021/11/11 13:26:35;;;;;;;18.52;8.98;;;;;;;4.47;100.00;100314.25;4942721;28;20122;-69
2021/11/11 14:01:01;;;;;;;20.23;9.63;;;;;;;4.29;100.00;100333.31;4872037;29;20536;-64
2021/11/11 16:03:05;;;;;;;23.10;11.57;;;;;;;5.06;100.00;100300.06;4953635;28;20616;-68
2021/11/11 16:20:48;;;;;;;26.92;12.25;;;;;;;4.74;100.00;100299.75;4966620;28;20053;-74
2021/11/11 16:23:47;;;;;;;24.38;12.18;;;;;;;4.69;100.00;100305.81;4950952;29;20459;-67
2021/11/11 16:26:32;;;;;;;25.65;12.10;;;;;;;4.62;100.00;100293.44;4966753;28;20530;-67
2021/11/11 16:29:17;;;;;;;;;;;;;;;4.67;100.00;100290.03;4947008;28;20070;-68
2021/11/11 16:32:02;;;;;;;23.48;12.40;;;;;;;4.63;100.00;100295.25;4954973;28;19930;-67
2021/11/11 16:34:48;;;;;;;25.38;12.10;;;;;;;4.58;100.00;100294.28;4935078;29;20050;-66
2021/11/11 16:37:34;;;;;;;26.60;12.93;;;;;;;4.61;100.00;100294.31;4963591;28;20420;-68
2021/11/11 16:40:23;;;;;;;25.30;12.10;;;;;;;4.73;100.00;100276.09;4946416;28;20067;-65
2021/11/11 16:43:09;;;;;;;23.15;12.00;;;;;;;5.02;100.00;100271.16;4944610;29;20159;-74
2021/11/11 16:45:55;;;;;;;24.73;12.05;;;;;;;5.30;100.00;100274.03;4949598;29;20151;-68